sensor_id;sensor_type;location;lat;lon;timestamp;P1;durP1;ratioP1;P2;durP2;ratioP2
5133;SDS011;2585;48.696;10.066;2023-04-19T00:01:36;18.07;;;12.80;;
5133;SDS011;2585;48.696;10.066;2023-04-19T00:04:03;21.20;;;12.93;;
5133;SDS011;2585;48.696;10.066;2023-04-19T00:06:30;16.33;;;12.73;;
5133;SDS011;2585;48.696;10.066;2023-04-19T00:08:57;21.10;;;11.90;;
5133;SDS011;2585;48.696;10.066;2023-04-19T00:11:23;20.80;;;13.20;;
5133;SDS011;2585;48.696;10.066;2023-04-19T00:13:50;18.47;;;12.43;;
5133;SDS011;2585;48.696;10.066;2023-04-19T00:16:17;15.53;;;11.57;;
5133;SDS011;2585;48.696;10.066;2023-04-19T00:18:44;16.87;;;11.30;;
5133;SDS011;2585;48.696;10.066;2023-04-19T00:21:11;14.73;;;10.97;;
5133;SDS011;2585;48.696;10.066;2023-04-19T00:23:38;20.13;;;13.23;;
5133;SDS011;2585;48.696;10.066;2023-04-19T00:26:05;18.97;;;12.70;;
5133;SDS011;2585;48.696;10.066;2023-04-19T00:28:32;17.93;;;12.40;;
5133;SDS011;2585;48.696;10.066;2023-04-19T00:30:59;18.73;;;12.30;;
5133;SDS011;2585;48.696;10.066;2023-04-19T00:33:26;20.27;;;13.83;;
5133;SDS011;2585;48.696;10.066;2023-04-19T00:35:53;20.40;;;13.17;;
5133;SDS011;2585;48.696;10.066;2023-04-19T00:38:19;15.10;;;11.70;;
5133;SDS011;2585;48.696;10.066;2023-04-19T00:40:46;21.63;;;12.97;;
5133;SDS011;2585;48.696;10.066;2023-04-19T00:43:17;16.47;;;12.30;;
5133;SDS011;2585;48.696;10.066;2023-04-19T00:45:44;18.40;;;12.40;;
5133;SDS011;2585;48.696;10.066;2023-04-19T00:48:12;20.40;;;13.30;;
5133;SDS011;2585;48.696;10.066;2023-04-19T00:50:41;19.90;;;13.00;;
5133;SDS011;2585;48.696;10.066;2023-04-19T00:53:09;17.47;;;12.87;;
5133;SDS011;2585;48.696;10.066;2023-04-19T00:55:40;20.93;;;14.13;;
5133;SDS011;2585;48.696;10.066;2023-04-19T00:58:07;19.30;;;12.23;;
5133;SDS011;2585;48.696;10.066;2023-04-19T01:00:35;19.53;;;14.17;;
5133;SDS011;2585;48.696;10.066;2023-04-19T01:03:02;20.07;;;13.53;;
5133;SDS011;2585;48.696;10.066;2023-04-19T01:05:29;19.73;;;13.90;;
5133;SDS011;2585;48.696;10.066;2023-04-19T01:07:56;19.87;;;13.33;;
5133;SDS011;2585;48.696;10.066;2023-04-19T01:10:23;18.10;;;13.13;;
5133;SDS011;2585;48.696;10.066;2023-04-19T01:12:50;21.87;;;12.50;;
5133;SDS011;2585;48.696;10.066;2023-04-19T01:15:17;20.20;;;12.77;;
5133;SDS011;2585;48.696;10.066;2023-04-19T01:17:44;20.77;;;13.27;;
5133;SDS011;2585;48.696;10.066;2023-04-19T01:20:11;24.00;;;15.77;;
5133;SDS011;2585;48.696;10.066;2023-04-19T01:22:38;21.60;;;14.13;;
5133;SDS011;2585;48.696;10.066;2023-04-19T01:25:05;20.27;;;14.50;;
5133;SDS011;2585;48.696;10.066;2023-04-19T01:27:32;19.73;;;13.90;;
5133;SDS011;2585;48.696;10.066;2023-04-19T01:29:59;20.10;;;15.30;;
5133;SDS011;2585;48.696;10.066;2023-04-19T01:32:26;25.57;;;15.00;;
5133;SDS011;2585;48.696;10.066;2023-04-19T01:34:53;21.03;;;14.47;;
5133;SDS011;2585;48.696;10.066;2023-04-19T01:37:20;23.50;;;16.03;;
5133;SDS011;2585;48.696;10.066;2023-04-19T01:39:47;22.60;;;13.90;;
5133;SDS011;2585;48.696;10.066;2023-04-19T01:42:13;19.87;;;14.43;;
5133;SDS011;2585;48.696;10.066;2023-04-19T01:44:40;24.83;;;15.57;;
5133;SDS011;2585;48.696;10.066;2023-04-19T01:47:07;19.97;;;14.40;;
5133;SDS011;2585;48.696;10.066;2023-04-19T01:49:34;27.80;;;16.10;;
5133;SDS011;2585;48.696;10.066;2023-04-19T01:52:01;25.17;;;16.73;;
5133;SDS011;2585;48.696;10.066;2023-04-19T01:54:28;23.20;;;14.63;;
5133;SDS011;2585;48.696;10.066;2023-04-19T01:56:54;26.37;;;16.20;;
5133;SDS011;2585;48.696;10.066;2023-04-19T01:59:22;22.60;;;15.07;;
5133;SDS011;2585;48.696;10.066;2023-04-19T02:01:49;27.90;;;15.40;;
5133;SDS011;2585;48.696;10.066;2023-04-19T02:04:19;21.87;;;15.37;;
5133;SDS011;2585;48.696;10.066;2023-04-19T02:06:49;29.80;;;16.40;;
5133;SDS011;2585;48.696;10.066;2023-04-19T02:09:16;23.03;;;15.63;;
5133;SDS011;2585;48.696;10.066;2023-04-19T02:11:43;19.20;;;14.87;;
5133;SDS011;2585;48.696;10.066;2023-04-19T02:14:09;23.93;;;14.70;;
5133;SDS011;2585;48.696;10.066;2023-04-19T02:16:36;25.50;;;16.67;;
5133;SDS011;2585;48.696;10.066;2023-04-19T02:19:03;23.27;;;15.47;;
5133;SDS011;2585;48.696;10.066;2023-04-19T02:21:30;27.10;;;16.87;;
5133;SDS011;2585;48.696;10.066;2023-04-19T02:23:57;23.10;;;15.30;;
5133;SDS011;2585;48.696;10.066;2023-04-19T02:26:24;26.07;;;18.07;;
5133;SDS011;2585;48.696;10.066;2023-04-19T02:28:51;25.50;;;17.03;;
5133;SDS011;2585;48.696;10.066;2023-04-19T02:31:18;26.70;;;16.17;;
5133;SDS011;2585;48.696;10.066;2023-04-19T02:33:45;23.90;;;15.67;;
5133;SDS011;2585;48.696;10.066;2023-04-19T02:36:12;26.90;;;16.90;;
5133;SDS011;2585;48.696;10.066;2023-04-19T02:38:39;34.30;;;16.10;;
5133;SDS011;2585;48.696;10.066;2023-04-19T02:41:05;25.97;;;16.00;;
5133;SDS011;2585;48.696;10.066;2023-04-19T02:43:32;25.17;;;16.53;;
5133;SDS011;2585;48.696;10.066;2023-04-19T02:45:59;25.20;;;15.70;;
5133;SDS011;2585;48.696;10.066;2023-04-19T02:48:26;26.20;;;16.93;;
5133;SDS011;2585;48.696;10.066;2023-04-19T02:50:53;23.97;;;15.30;;
5133;SDS011;2585;48.696;10.066;2023-04-19T02:53:20;27.20;;;16.57;;
5133;SDS011;2585;48.696;10.066;2023-04-19T02:55:47;26.03;;;15.03;;
5133;SDS011;2585;48.696;10.066;2023-04-19T02:58:14;24.50;;;16.53;;
5133;SDS011;2585;48.696;10.066;2023-04-19T03:00:40;21.50;;;15.20;;
5133;SDS011;2585;48.696;10.066;2023-04-19T03:03:07;24.80;;;15.27;;
5133;SDS011;2585;48.696;10.066;2023-04-19T03:05:35;21.63;;;15.70;;
5133;SDS011;2585;48.696;10.066;2023-04-19T03:08:01;23.80;;;15.43;;
5133;SDS011;2585;48.696;10.066;2023-04-19T03:10:28;21.73;;;14.77;;
5133;SDS011;2585;48.696;10.066;2023-04-19T03:12:55;25.70;;;16.60;;
5133;SDS011;2585;48.696;10.066;2023-04-19T03:15:22;24.27;;;15.40;;
5133;SDS011;2585;48.696;10.066;2023-04-19T03:17:48;24.40;;;15.33;;
5133;SDS011;2585;48.696;10.066;2023-04-19T03:20:16;24.80;;;15.57;;
5133;SDS011;2585;48.696;10.066;2023-04-19T03:22:43;24.83;;;15.80;;
5133;SDS011;2585;48.696;10.066;2023-04-19T03:25:10;25.40;;;15.73;;
5133;SDS011;2585;48.696;10.066;2023-04-19T03:27:38;23.13;;;16.40;;
5133;SDS011;2585;48.696;10.066;2023-04-19T03:30:05;25.77;;;16.63;;
5133;SDS011;2585;48.696;10.066;2023-04-19T03:32:32;25.23;;;17.07;;
5133;SDS011;2585;48.696;10.066;2023-04-19T03:34:59;24.17;;;16.13;;
5133;SDS011;2585;48.696;10.066;2023-04-19T03:37:26;24.60;;;16.40;;
5133;SDS011;2585;48.696;10.066;2023-04-19T03:39:53;28.43;;;16.20;;
5133;SDS011;2585;48.696;10.066;2023-04-19T03:42:20;21.60;;;15.57;;
5133;SDS011;2585;48.696;10.066;2023-04-19T03:44:47;24.97;;;16.43;;
5133;SDS011;2585;48.696;10.066;2023-04-19T03:47:13;23.23;;;16.27;;
5133;SDS011;2585;48.696;10.066;2023-04-19T03:49:40;28.30;;;14.67;;
5133;SDS011;2585;48.696;10.066;2023-04-19T03:52:07;25.43;;;15.87;;
5133;SDS011;2585;48.696;10.066;2023-04-19T03:54:34;23.37;;;14.67;;
5133;SDS011;2585;48.696;10.066;2023-04-19T03:57:01;27.13;;;17.60;;
5133;SDS011;2585;48.696;10.066;2023-04-19T03:59:28;23.73;;;16.20;;
5133;SDS011;2585;48.696;10.066;2023-04-19T04:01:54;27.43;;;17.10;;
5133;SDS011;2585;48.696;10.066;2023-04-19T04:04:21;24.60;;;15.53;;
5133;SDS011;2585;48.696;10.066;2023-04-19T04:06:48;26.67;;;17.73;;
5133;SDS011;2585;48.696;10.066;2023-04-19T04:09:15;23.17;;;16.40;;
5133;SDS011;2585;48.696;10.066;2023-04-19T04:11:42;26.40;;;17.43;;
5133;SDS011;2585;48.696;10.066;2023-04-19T04:14:09;25.50;;;17.23;;
5133;SDS011;2585;48.696;10.066;2023-04-19T04:16:35;29.77;;;16.83;;
5133;SDS011;2585;48.696;10.066;2023-04-19T04:19:02;27.10;;;17.43;;
5133;SDS011;2585;48.696;10.066;2023-04-19T04:21:29;24.30;;;16.73;;
5133;SDS011;2585;48.696;10.066;2023-04-19T04:23:56;27.47;;;16.90;;
5133;SDS011;2585;48.696;10.066;2023-04-19T04:26:23;27.60;;;17.43;;
5133;SDS011;2585;48.696;10.066;2023-04-19T04:28:50;26.10;;;16.37;;
5133;SDS011;2585;48.696;10.066;2023-04-19T04:31:17;30.03;;;17.20;;
5133;SDS011;2585;48.696;10.066;2023-04-19T04:33:44;27.53;;;16.37;;
5133;SDS011;2585;48.696;10.066;2023-04-19T04:36:11;25.60;;;17.50;;
5133;SDS011;2585;48.696;10.066;2023-04-19T04:38:38;28.33;;;17.93;;
5133;SDS011;2585;48.696;10.066;2023-04-19T04:41:04;27.47;;;16.87;;
5133;SDS011;2585;48.696;10.066;2023-04-19T04:43:31;30.20;;;17.27;;
5133;SDS011;2585;48.696;10.066;2023-04-19T04:45:59;25.40;;;16.87;;
5133;SDS011;2585;48.696;10.066;2023-04-19T04:48:27;27.90;;;16.57;;
5133;SDS011;2585;48.696;10.066;2023-04-19T04:50:54;27.10;;;17.37;;
5133;SDS011;2585;48.696;10.066;2023-04-19T04:53:20;26.70;;;17.07;;
5133;SDS011;2585;48.696;10.066;2023-04-19T04:55:48;29.00;;;17.20;;
5133;SDS011;2585;48.696;10.066;2023-04-19T04:58:15;26.23;;;15.30;;
5133;SDS011;2585;48.696;10.066;2023-04-19T05:00:45;26.87;;;16.70;;
5133;SDS011;2585;48.696;10.066;2023-04-19T05:03:12;23.53;;;16.77;;
5133;SDS011;2585;48.696;10.066;2023-04-19T05:05:39;24.60;;;16.53;;
5133;SDS011;2585;48.696;10.066;2023-04-19T05:08:07;27.90;;;15.60;;
5133;SDS011;2585;48.696;10.066;2023-04-19T05:10:34;24.63;;;16.20;;
5133;SDS011;2585;48.696;10.066;2023-04-19T05:13:01;28.33;;;16.83;;
5133;SDS011;2585;48.696;10.066;2023-04-19T05:15:28;22.60;;;16.27;;
5133;SDS011;2585;48.696;10.066;2023-04-19T05:17:54;24.03;;;15.50;;
5133;SDS011;2585;48.696;10.066;2023-04-19T05:20:21;28.00;;;15.87;;
5133;SDS011;2585;48.696;10.066;2023-04-19T05:22:48;22.63;;;14.87;;
5133;SDS011;2585;48.696;10.066;2023-04-19T05:25:15;21.77;;;14.33;;
5133;SDS011;2585;48.696;10.066;2023-04-19T05:27:42;25.10;;;14.43;;
5133;SDS011;2585;48.696;10.066;2023-04-19T05:30:08;22.27;;;14.60;;
5133;SDS011;2585;48.696;10.066;2023-04-19T05:32:35;23.63;;;13.60;;
5133;SDS011;2585;48.696;10.066;2023-04-19T05:35:02;22.03;;;14.97;;
5133;SDS011;2585;48.696;10.066;2023-04-19T05:37:29;21.87;;;14.07;;
5133;SDS011;2585;48.696;10.066;2023-04-19T05:39:56;23.97;;;14.37;;
5133;SDS011;2585;48.696;10.066;2023-04-19T05:42:23;20.40;;;13.60;;
5133;SDS011;2585;48.696;10.066;2023-04-19T05:44:50;24.97;;;14.33;;
5133;SDS011;2585;48.696;10.066;2023-04-19T05:47:17;22.97;;;14.67;;
5133;SDS011;2585;48.696;10.066;2023-04-19T05:49:43;22.03;;;15.80;;
5133;SDS011;2585;48.696;10.066;2023-04-19T05:52:10;22.87;;;14.40;;
5133;SDS011;2585;48.696;10.066;2023-04-19T05:54:37;22.97;;;15.87;;
5133;SDS011;2585;48.696;10.066;2023-04-19T05:57:04;24.03;;;14.10;;
5133;SDS011;2585;48.696;10.066;2023-04-19T05:59:30;22.93;;;15.23;;
5133;SDS011;2585;48.696;10.066;2023-04-19T06:01:57;24.40;;;14.10;;
5133;SDS011;2585;48.696;10.066;2023-04-19T06:04:24;24.10;;;14.03;;
5133;SDS011;2585;48.696;10.066;2023-04-19T06:06:52;19.53;;;13.13;;
5133;SDS011;2585;48.696;10.066;2023-04-19T06:09:19;24.13;;;13.70;;
5133;SDS011;2585;48.696;10.066;2023-04-19T06:11:46;24.77;;;14.83;;
5133;SDS011;2585;48.696;10.066;2023-04-19T06:14:16;19.53;;;13.30;;
5133;SDS011;2585;48.696;10.066;2023-04-19T06:16:44;26.70;;;14.50;;
5133;SDS011;2585;48.696;10.066;2023-04-19T06:19:11;24.47;;;14.27;;
5133;SDS011;2585;48.696;10.066;2023-04-19T06:21:38;19.00;;;13.07;;
5133;SDS011;2585;48.696;10.066;2023-04-19T06:24:05;25.20;;;14.23;;
5133;SDS011;2585;48.696;10.066;2023-04-19T06:26:32;21.70;;;14.87;;
5133;SDS011;2585;48.696;10.066;2023-04-19T06:28:59;22.73;;;13.20;;
5133;SDS011;2585;48.696;10.066;2023-04-19T06:31:26;22.03;;;13.37;;
5133;SDS011;2585;48.696;10.066;2023-04-19T06:33:53;22.50;;;13.93;;
5133;SDS011;2585;48.696;10.066;2023-04-19T06:36:20;19.13;;;12.67;;
5133;SDS011;2585;48.696;10.066;2023-04-19T06:38:47;20.70;;;13.10;;
5133;SDS011;2585;48.696;10.066;2023-04-19T06:41:15;26.60;;;13.90;;
5133;SDS011;2585;48.696;10.066;2023-04-19T06:43:42;30.33;;;13.93;;
5133;SDS011;2585;48.696;10.066;2023-04-19T06:46:10;21.57;;;14.47;;
5133;SDS011;2585;48.696;10.066;2023-04-19T06:48:39;18.73;;;13.33;;
5133;SDS011;2585;48.696;10.066;2023-04-19T06:51:06;20.80;;;14.07;;
5133;SDS011;2585;48.696;10.066;2023-04-19T06:53:33;21.60;;;12.87;;
5133;SDS011;2585;48.696;10.066;2023-04-19T06:56:01;20.30;;;12.80;;
5133;SDS011;2585;48.696;10.066;2023-04-19T06:58:31;23.57;;;12.97;;
5133;SDS011;2585;48.696;10.066;2023-04-19T07:01:00;22.40;;;14.17;;
5133;SDS011;2585;48.696;10.066;2023-04-19T07:03:29;20.57;;;13.47;;
5133;SDS011;2585;48.696;10.066;2023-04-19T07:05:56;18.67;;;12.20;;
5133;SDS011;2585;48.696;10.066;2023-04-19T07:08:23;18.17;;;11.57;;
5133;SDS011;2585;48.696;10.066;2023-04-19T07:10:57;19.30;;;13.70;;
5133;SDS011;2585;48.696;10.066;2023-04-19T07:13:24;27.73;;;13.30;;
5133;SDS011;2585;48.696;10.066;2023-04-19T07:15:50;17.33;;;11.97;;
5133;SDS011;2585;48.696;10.066;2023-04-19T07:18:17;18.93;;;11.83;;
5133;SDS011;2585;48.696;10.066;2023-04-19T07:20:44;21.07;;;13.60;;
5133;SDS011;2585;48.696;10.066;2023-04-19T07:23:14;15.77;;;11.37;;
5133;SDS011;2585;48.696;10.066;2023-04-19T07:25:41;16.10;;;12.33;;
5133;SDS011;2585;48.696;10.066;2023-04-19T07:28:07;15.47;;;11.00;;
5133;SDS011;2585;48.696;10.066;2023-04-19T07:30:34;16.13;;;11.43;;
5133;SDS011;2585;48.696;10.066;2023-04-19T07:33:01;19.93;;;12.43;;
5133;SDS011;2585;48.696;10.066;2023-04-19T07:35:30;21.63;;;12.20;;
5133;SDS011;2585;48.696;10.066;2023-04-19T07:37:56;15.67;;;10.87;;
5133;SDS011;2585;48.696;10.066;2023-04-19T07:40:23;19.50;;;12.37;;
5133;SDS011;2585;48.696;10.066;2023-04-19T07:42:50;17.17;;;12.00;;
5133;SDS011;2585;48.696;10.066;2023-04-19T07:45:20;18.43;;;12.30;;
5133;SDS011;2585;48.696;10.066;2023-04-19T07:47:47;19.13;;;12.10;;
5133;SDS011;2585;48.696;10.066;2023-04-19T07:50:14;24.03;;;11.90;;
5133;SDS011;2585;48.696;10.066;2023-04-19T07:52:41;17.70;;;12.27;;
5133;SDS011;2585;48.696;10.066;2023-04-19T07:55:07;17.47;;;11.60;;
5133;SDS011;2585;48.696;10.066;2023-04-19T07:57:34;20.13;;;12.63;;
5133;SDS011;2585;48.696;10.066;2023-04-19T08:00:01;19.00;;;12.53;;
5133;SDS011;2585;48.696;10.066;2023-04-19T08:02:29;20.60;;;11.80;;
5133;SDS011;2585;48.696;10.066;2023-04-19T08:04:56;17.83;;;11.47;;
5133;SDS011;2585;48.696;10.066;2023-04-19T08:07:23;15.17;;;11.80;;
5133;SDS011;2585;48.696;10.066;2023-04-19T08:09:51;21.30;;;12.30;;
5133;SDS011;2585;48.696;10.066;2023-04-19T08:12:18;20.93;;;11.40;;
5133;SDS011;2585;48.696;10.066;2023-04-19T08:15:02;19.47;;;12.20;;
5133;SDS011;2585;48.696;10.066;2023-04-19T08:17:49;19.77;;;13.23;;
5133;SDS011;2585;48.696;10.066;2023-04-19T08:20:16;20.50;;;14.03;;
5133;SDS011;2585;48.696;10.066;2023-04-19T08:22:44;16.80;;;11.60;;
5133;SDS011;2585;48.696;10.066;2023-04-19T08:25:11;23.77;;;13.13;;
5133;SDS011;2585;48.696;10.066;2023-04-19T08:27:38;18.57;;;12.40;;
5133;SDS011;2585;48.696;10.066;2023-04-19T08:30:05;116.87;;;36.77;;
5133;SDS011;2585;48.696;10.066;2023-04-19T08:32:33;30.37;;;15.97;;
5133;SDS011;2585;48.696;10.066;2023-04-19T08:34:59;19.43;;;12.60;;
5133;SDS011;2585;48.696;10.066;2023-04-19T08:37:26;17.30;;;11.37;;
5133;SDS011;2585;48.696;10.066;2023-04-19T08:39:53;21.47;;;12.10;;
5133;SDS011;2585;48.696;10.066;2023-04-19T08:42:20;16.23;;;11.30;;
5133;SDS011;2585;48.696;10.066;2023-04-19T08:45:01;16.40;;;11.13;;
5133;SDS011;2585;48.696;10.066;2023-04-19T08:47:34;16.00;;;9.97;;
5133;SDS011;2585;48.696;10.066;2023-04-19T08:50:13;23.70;;;12.70;;
5133;SDS011;2585;48.696;10.066;2023-04-19T08:52:59;131.77;;;28.33;;
5133;SDS011;2585;48.696;10.066;2023-04-19T08:55:47;15.67;;;10.30;;
5133;SDS011;2585;48.696;10.066;2023-04-19T08:58:17;23.10;;;10.73;;
5133;SDS011;2585;48.696;10.066;2023-04-19T09:01:06;17.13;;;11.80;;
5133;SDS011;2585;48.696;10.066;2023-04-19T09:03:43;16.40;;;9.30;;
5133;SDS011;2585;48.696;10.066;2023-04-19T09:06:38;22.80;;;11.13;;
5133;SDS011;2585;48.696;10.066;2023-04-19T09:09:16;19.90;;;10.00;;
5133;SDS011;2585;48.696;10.066;2023-04-19T09:11:47;13.90;;;9.23;;
5133;SDS011;2585;48.696;10.066;2023-04-19T09:14:17;16.63;;;10.10;;
5133;SDS011;2585;48.696;10.066;2023-04-19T09:16:44;12.27;;;9.00;;
5133;SDS011;2585;48.696;10.066;2023-04-19T09:19:11;13.37;;;8.80;;
5133;SDS011;2585;48.696;10.066;2023-04-19T09:21:50;13.77;;;9.73;;
5133;SDS011;2585;48.696;10.066;2023-04-19T09:24:35;15.23;;;9.50;;
5133;SDS011;2585;48.696;10.066;2023-04-19T09:27:30;11.73;;;8.00;;
5133;SDS011;2585;48.696;10.066;2023-04-19T09:29:59;12.30;;;8.90;;
5133;SDS011;2585;48.696;10.066;2023-04-19T09:32:27;14.87;;;9.03;;
5133;SDS011;2585;48.696;10.066;2023-04-19T09:35:09;11.47;;;8.77;;
5133;SDS011;2585;48.696;10.066;2023-04-19T09:37:36;19.47;;;9.87;;
5133;SDS011;2585;48.696;10.066;2023-04-19T09:40:26;14.83;;;10.27;;
5133;SDS011;2585;48.696;10.066;2023-04-19T09:42:53;14.27;;;10.23;;
5133;SDS011;2585;48.696;10.066;2023-04-19T09:45:44;16.07;;;9.90;;
5133;SDS011;2585;48.696;10.066;2023-04-19T09:48:11;15.20;;;10.03;;
5133;SDS011;2585;48.696;10.066;2023-04-19T09:50:54;15.87;;;10.33;;
5133;SDS011;2585;48.696;10.066;2023-04-19T09:53:34;14.10;;;9.50;;
5133;SDS011;2585;48.696;10.066;2023-04-19T09:56:04;13.33;;;9.83;;
5133;SDS011;2585;48.696;10.066;2023-04-19T09:58:34;12.90;;;9.00;;
5133;SDS011;2585;48.696;10.066;2023-04-19T10:01:04;13.80;;;9.53;;
5133;SDS011;2585;48.696;10.066;2023-04-19T10:03:43;11.63;;;8.23;;
5133;SDS011;2585;48.696;10.066;2023-04-19T10:06:14;11.00;;;8.17;;
5133;SDS011;2585;48.696;10.066;2023-04-19T10:08:48;10.90;;;8.37;;
5133;SDS011;2585;48.696;10.066;2023-04-19T10:11:16;10.87;;;7.60;;
5133;SDS011;2585;48.696;10.066;2023-04-19T10:13:45;13.07;;;7.70;;
5133;SDS011;2585;48.696;10.066;2023-04-19T10:16:14;12.60;;;8.67;;
5133;SDS011;2585;48.696;10.066;2023-04-19T10:18:46;25.10;;;16.07;;
5133;SDS011;2585;48.696;10.066;2023-04-19T10:21:18;11.10;;;8.30;;
5133;SDS011;2585;48.696;10.066;2023-04-19T10:23:45;12.90;;;8.60;;
5133;SDS011;2585;48.696;10.066;2023-04-19T10:26:13;13.13;;;8.87;;
5133;SDS011;2585;48.696;10.066;2023-04-19T10:28:40;13.00;;;8.27;;
5133;SDS011;2585;48.696;10.066;2023-04-19T10:31:10;14.90;;;8.90;;
5133;SDS011;2585;48.696;10.066;2023-04-19T10:33:40;15.30;;;10.40;;
5133;SDS011;2585;48.696;10.066;2023-04-19T10:36:07;14.40;;;8.97;;
5133;SDS011;2585;48.696;10.066;2023-04-19T10:38:39;11.93;;;8.57;;
5133;SDS011;2585;48.696;10.066;2023-04-19T10:41:15;14.00;;;9.50;;
5133;SDS011;2585;48.696;10.066;2023-04-19T10:44:07;51.73;;;23.20;;
5133;SDS011;2585;48.696;10.066;2023-04-19T10:46:38;12.67;;;9.37;;
5133;SDS011;2585;48.696;10.066;2023-04-19T10:49:06;13.13;;;8.67;;
5133;SDS011;2585;48.696;10.066;2023-04-19T10:51:35;14.33;;;9.53;;
5133;SDS011;2585;48.696;10.066;2023-04-19T10:54:07;14.80;;;9.70;;
5133;SDS011;2585;48.696;10.066;2023-04-19T11:01:37;22.70;;;10.47;;
5133;SDS011;2585;48.696;10.066;2023-04-19T11:12:03;11.50;;;9.50;;
5133;SDS011;2585;48.696;10.066;2023-04-19T11:14:34;14.37;;;9.33;;
5133;SDS011;2585;48.696;10.066;2023-04-19T11:17:13;15.73;;;10.47;;
5133;SDS011;2585;48.696;10.066;2023-04-19T11:20:01;21.60;;;10.03;;
5133;SDS011;2585;48.696;10.066;2023-04-19T11:27:56;13.57;;;9.73;;
5133;SDS011;2585;48.696;10.066;2023-04-19T11:30:28;16.13;;;10.30;;
5133;SDS011;2585;48.696;10.066;2023-04-19T11:32:56;15.20;;;9.50;;
5133;SDS011;2585;48.696;10.066;2023-04-19T11:35:24;15.20;;;10.60;;
5133;SDS011;2585;48.696;10.066;2023-04-19T11:37:52;16.40;;;10.47;;
5133;SDS011;2585;48.696;10.066;2023-04-19T11:40:22;13.40;;;10.13;;
5133;SDS011;2585;48.696;10.066;2023-04-19T11:42:57;15.43;;;10.23;;
5133;SDS011;2585;48.696;10.066;2023-04-19T11:45:27;14.00;;;10.57;;
5133;SDS011;2585;48.696;10.066;2023-04-19T11:48:01;15.97;;;11.00;;
5133;SDS011;2585;48.696;10.066;2023-04-19T11:52:56;16.87;;;11.70;;
5133;SDS011;2585;48.696;10.066;2023-04-19T11:55:23;15.10;;;10.37;;
5133;SDS011;2585;48.696;10.066;2023-04-19T11:57:50;16.80;;;10.73;;
5133;SDS011;2585;48.696;10.066;2023-04-19T12:00:25;16.30;;;10.87;;
5133;SDS011;2585;48.696;10.066;2023-04-19T12:02:53;15.50;;;11.17;;
5133;SDS011;2585;48.696;10.066;2023-04-19T12:05:21;19.10;;;13.60;;
5133;SDS011;2585;48.696;10.066;2023-04-19T12:08:02;17.00;;;12.10;;
5133;SDS011;2585;48.696;10.066;2023-04-19T12:10:30;17.43;;;10.97;;
5133;SDS011;2585;48.696;10.066;2023-04-19T12:12:57;14.17;;;11.10;;
5133;SDS011;2585;48.696;10.066;2023-04-19T12:15:43;15.03;;;10.43;;
5133;SDS011;2585;48.696;10.066;2023-04-19T12:18:11;15.93;;;10.20;;
5133;SDS011;2585;48.696;10.066;2023-04-19T12:20:42;15.53;;;10.73;;
5133;SDS011;2585;48.696;10.066;2023-04-19T12:23:10;14.17;;;9.80;;
5133;SDS011;2585;48.696;10.066;2023-04-19T12:25:39;10.70;;;7.40;;
5133;SDS011;2585;48.696;10.066;2023-04-19T12:28:06;12.27;;;8.37;;
5133;SDS011;2585;48.696;10.066;2023-04-19T12:30:36;13.63;;;7.93;;
5133;SDS011;2585;48.696;10.066;2023-04-19T12:33:05;15.10;;;8.90;;
5133;SDS011;2585;48.696;10.066;2023-04-19T12:35:32;15.20;;;10.23;;
5133;SDS011;2585;48.696;10.066;2023-04-19T12:38:00;18.57;;;10.50;;
5133;SDS011;2585;48.696;10.066;2023-04-19T12:40:28;14.93;;;10.30;;
5133;SDS011;2585;48.696;10.066;2023-04-19T12:42:55;15.03;;;10.97;;
5133;SDS011;2585;48.696;10.066;2023-04-19T12:45:22;15.93;;;10.27;;
5133;SDS011;2585;48.696;10.066;2023-04-19T12:47:49;16.67;;;10.93;;
5133;SDS011;2585;48.696;10.066;2023-04-19T12:50:16;17.90;;;11.43;;
5133;SDS011;2585;48.696;10.066;2023-04-19T12:52:43;17.00;;;12.10;;
5133;SDS011;2585;48.696;10.066;2023-04-19T12:55:11;19.10;;;13.10;;
5133;SDS011;2585;48.696;10.066;2023-04-19T12:57:38;19.60;;;14.07;;
5133;SDS011;2585;48.696;10.066;2023-04-19T13:00:05;20.57;;;13.70;;
5133;SDS011;2585;48.696;10.066;2023-04-19T13:02:33;20.83;;;13.40;;
5133;SDS011;2585;48.696;10.066;2023-04-19T13:05:00;20.40;;;13.70;;
5133;SDS011;2585;48.696;10.066;2023-04-19T13:07:27;17.23;;;12.37;;
5133;SDS011;2585;48.696;10.066;2023-04-19T13:09:54;18.33;;;12.33;;
5133;SDS011;2585;48.696;10.066;2023-04-19T13:12:22;18.47;;;13.40;;
5133;SDS011;2585;48.696;10.066;2023-04-19T13:14:49;17.33;;;12.30;;
5133;SDS011;2585;48.696;10.066;2023-04-19T13:17:18;19.87;;;13.10;;
5133;SDS011;2585;48.696;10.066;2023-04-19T13:19:45;22.70;;;14.93;;
5133;SDS011;2585;48.696;10.066;2023-04-19T13:22:12;17.30;;;11.90;;
5133;SDS011;2585;48.696;10.066;2023-04-19T13:24:40;15.40;;;10.93;;
5133;SDS011;2585;48.696;10.066;2023-04-19T13:27:06;16.93;;;12.53;;
5133;SDS011;2585;48.696;10.066;2023-04-19T13:29:34;17.63;;;13.40;;
5133;SDS011;2585;48.696;10.066;2023-04-19T13:32:01;17.00;;;12.73;;
5133;SDS011;2585;48.696;10.066;2023-04-19T13:34:28;15.77;;;12.20;;
5133;SDS011;2585;48.696;10.066;2023-04-19T13:36:55;17.33;;;12.03;;
5133;SDS011;2585;48.696;10.066;2023-04-19T13:39:23;19.40;;;12.60;;
5133;SDS011;2585;48.696;10.066;2023-04-19T13:41:50;15.63;;;12.13;;
5133;SDS011;2585;48.696;10.066;2023-04-19T13:44:17;16.70;;;11.77;;
5133;SDS011;2585;48.696;10.066;2023-04-19T13:46:44;14.37;;;10.50;;
5133;SDS011;2585;48.696;10.066;2023-04-19T13:49:11;15.23;;;11.73;;
5133;SDS011;2585;48.696;10.066;2023-04-19T13:51:38;15.77;;;10.43;;
5133;SDS011;2585;48.696;10.066;2023-04-19T13:54:15;13.77;;;10.43;;
5133;SDS011;2585;48.696;10.066;2023-04-19T13:56:44;15.70;;;11.87;;
5133;SDS011;2585;48.696;10.066;2023-04-19T13:59:10;17.20;;;10.47;;
5133;SDS011;2585;48.696;10.066;2023-04-19T14:01:37;13.03;;;10.47;;
5133;SDS011;2585;48.696;10.066;2023-04-19T14:04:04;14.80;;;10.20;;
5133;SDS011;2585;48.696;10.066;2023-04-19T14:06:31;19.60;;;11.40;;
5133;SDS011;2585;48.696;10.066;2023-04-19T14:08:58;16.23;;;9.87;;
5133;SDS011;2585;48.696;10.066;2023-04-19T14:11:25;17.13;;;10.93;;
5133;SDS011;2585;48.696;10.066;2023-04-19T14:13:52;16.80;;;10.20;;
5133;SDS011;2585;48.696;10.066;2023-04-19T14:16:19;21.60;;;11.23;;
5133;SDS011;2585;48.696;10.066;2023-04-19T14:18:46;13.97;;;9.37;;
5133;SDS011;2585;48.696;10.066;2023-04-19T14:21:13;12.77;;;10.30;;
5133;SDS011;2585;48.696;10.066;2023-04-19T14:23:40;15.40;;;10.20;;
5133;SDS011;2585;48.696;10.066;2023-04-19T14:26:07;19.50;;;12.60;;
5133;SDS011;2585;48.696;10.066;2023-04-19T14:28:34;15.17;;;10.30;;
5133;SDS011;2585;48.696;10.066;2023-04-19T14:31:00;16.07;;;10.33;;
5133;SDS011;2585;48.696;10.066;2023-04-19T14:33:27;17.80;;;10.70;;
5133;SDS011;2585;48.696;10.066;2023-04-19T14:35:54;12.63;;;9.63;;
5133;SDS011;2585;48.696;10.066;2023-04-19T14:38:21;16.70;;;11.40;;
5133;SDS011;2585;48.696;10.066;2023-04-19T14:40:47;14.97;;;10.30;;
5133;SDS011;2585;48.696;10.066;2023-04-19T14:43:14;14.60;;;10.80;;
5133;SDS011;2585;48.696;10.066;2023-04-19T14:45:41;15.87;;;10.77;;
5133;SDS011;2585;48.696;10.066;2023-04-19T14:48:08;13.07;;;9.90;;
5133;SDS011;2585;48.696;10.066;2023-04-19T14:50:35;11.70;;;9.37;;
5133;SDS011;2585;48.696;10.066;2023-04-19T14:53:02;13.33;;;10.33;;
5133;SDS011;2585;48.696;10.066;2023-04-19T14:55:28;13.77;;;10.37;;
5133;SDS011;2585;48.696;10.066;2023-04-19T14:57:55;15.30;;;9.40;;
5133;SDS011;2585;48.696;10.066;2023-04-19T15:00:22;12.27;;;9.33;;
5133;SDS011;2585;48.696;10.066;2023-04-19T15:02:49;15.83;;;10.93;;
5133;SDS011;2585;48.696;10.066;2023-04-19T15:05:16;15.63;;;10.93;;